Terminal Aerodrome Forecast
Issued by NWS Sioux Falls, SD

Home | Current Version | Previous Version | Graphics & Text | Print | Product List | Glossary Off
Versions: 1 2 3 4 5 6 7 8 9 10 11 12 13 14 15 16 17 18 19 20

000
FTUS43 KFSD 190944 AAA
TAFSUX
TAF AMD
KSUX 190944Z 1910/2006 VRB03KT P6SM SKC
     FM191100 00000KT 5SM BR SKC
      TEMPO 1911/1914 2SM BR SCT003
     FM191400 VRB04KT P6SM SKC
     FM191800 15007KT P6SM SKC
     FM200400 14006KT P6SM BKN080=

USA.gov is the U.S. government's official web portal to all federal, state and local government web resources and services.